Time;durP1;ratioP1;P1;durP2;ratioP2;P2;SDS_P1;SDS_P2;PMS_P1;PMS_P2;Temp;Humidity;BMP_temperature;BMP_pressure;BME280_temperature;BME280_humidity;BME280_pressure;Samples;Min_cycle;Max_cycle;Signal;HPM_P1;HPM_P2
2021/01/30 00:00:28;;;;;;;6.78;1.73;;;8.20;99.90;;;;;;4994681;28;20027;-63
2021/01/30 00:02:54;;;;;;;3.47;1.05;;;8.30;99.90;;;;;;4994849;28;20033;-64
2021/01/30 00:05:20;;;;;;;5.23;1.30;;;8.30;99.90;;;;;;4994879;28;20063;-65
2021/01/30 00:07:45;;;;;;;3.87;0.90;;;8.30;99.90;;;;;;4994774;28;20279;-64
2021/01/30 00:10:12;;;;;;;7.57;1.67;;;8.30;99.90;;;;;;4994604;28;20077;-65
2021/01/30 00:12:38;;;;;;;5.05;1.65;;;8.40;99.90;;;;;;4993871;28;20026;-63
2021/01/30 00:15:05;;;;;;;4.67;2.50;;;8.40;99.90;;;;;;4976636;28;20510;-64
2021/01/30 00:17:31;;;;;;;2.75;1.00;;;8.40;99.90;;;;;;4979576;28;20026;-63
2021/01/30 00:19:56;;;;;;;4.90;1.60;;;8.30;99.90;;;;;;4994704;28;20375;-63
2021/01/30 00:22:24;;;;;;;9.13;2.00;;;8.30;99.90;;;;;;4994462;28;20030;-64
2021/01/30 00:24:50;;;;;;;6.43;1.60;;;8.30;99.90;;;;;;4994554;28;20113;-64
2021/01/30 00:27:19;;;;;;;7.93;1.20;;;8.20;99.90;;;;;;4994315;28;20062;-64
2021/01/30 00:29:46;;;;;;;9.15;1.65;;;8.20;99.90;;;;;;4994674;28;20026;-63
2021/01/30 00:32:12;;;;;;;;;;;8.20;99.90;;;;;;4978975;28;20085;-63
2021/01/30 00:34:41;;;;;;;6.43;1.80;;;8.20;99.90;;;;;;4994023;28;20346;-63
2021/01/30 00:37:06;;;;;;;6.15;1.52;;;8.10;99.90;;;;;;4994966;28;20027;-63
2021/01/30 00:39:33;;;;;;;5.13;1.70;;;8.10;99.90;;;;;;4994507;28;20022;-64
2021/01/30 00:41:58;;;;;;;3.72;1.50;;;8.10;99.90;;;;;;4993976;28;20018;-63
2021/01/30 00:44:24;;;;;;;4.50;1.27;;;8.10;99.90;;;;;;4993619;28;20109;-62
2021/01/30 00:46:50;;;;;;;4.50;1.13;;;8.10;99.90;;;;;;4994353;28;20109;-63
2021/01/30 00:49:16;;;;;;;4.85;1.80;;;8.10;99.90;;;;;;4976823;28;20080;-62
2021/01/30 00:51:42;;;;;;;7.57;1.30;;;8.10;99.90;;;;;;4994406;28;20081;-63
2021/01/30 00:54:08;;;;;;;8.00;2.23;;;8.10;99.90;;;;;;4993560;28;20526;-62
2021/01/30 00:56:34;;;;;;;8.25;1.50;;;8.20;99.90;;;;;;4993984;28;20019;-64
2021/01/30 00:59:00;;;;;;;4.77;1.30;;;8.20;99.90;;;;;;4994020;28;20479;-63
2021/01/30 01:01:25;;;;;;;5.60;1.10;;;8.20;99.90;;;;;;4993801;28;20029;-64
2021/01/30 01:03:51;;;;;;;4.40;1.03;;;8.20;99.90;;;;;;4994157;28;20037;-64
2021/01/30 01:06:16;;;;;;;4.90;1.40;;;8.30;99.90;;;;;;4993931;28;20023;-63
2021/01/30 01:08:42;;;;;;;2.93;0.90;;;8.20;99.90;;;;;;4994545;28;20475;-63
2021/01/30 01:11:08;;;;;;;2.93;1.20;;;8.20;99.90;;;;;;4994465;28;20029;-63
2021/01/30 01:13:34;;;;;;;6.93;1.90;;;8.20;99.90;;;;;;4993904;28;20026;-64
2021/01/30 01:15:59;;;;;;;6.57;1.33;;;8.20;99.90;;;;;;4993801;28;20022;-64
2021/01/30 01:18:25;;;;;;;3.20;0.87;;;8.20;99.90;;;;;;4993927;28;20026;-63
2021/01/30 01:20:51;;;;;;;8.13;1.33;;;8.20;99.90;;;;;;4993948;28;20042;-63
2021/01/30 01:23:17;;;;;;;1.20;0.63;;;8.20;99.90;;;;;;4975989;28;20026;-63
2021/01/30 01:25:42;;;;;;;2.83;0.90;;;8.20;99.90;;;;;;4997494;28;20479;-62
2021/01/30 01:28:08;;;;;;;2.97;0.90;;;8.20;99.90;;;;;;4997004;28;20030;-64
2021/01/30 01:30:34;;;;;;;3.97;0.70;;;8.20;99.90;;;;;;4996961;28;20105;-63
2021/01/30 01:32:59;;;;;;;3.63;0.90;;;8.20;99.90;;;;;;4979364;28;20034;-62
2021/01/30 01:35:28;;;;;;;4.45;0.90;;;8.30;99.90;;;;;;4996745;28;20035;-63
2021/01/30 01:37:54;;;;;;;5.72;1.40;;;8.30;99.90;;;;;;4996915;28;20034;-63
2021/01/30 01:40:23;;;;;;;1.67;0.87;;;8.30;99.90;;;;;;4996999;28;20118;-63
2021/01/30 01:42:49;;;;;;;3.35;0.73;;;8.30;99.90;;;;;;4997799;28;20416;-63
2021/01/30 01:45:15;;;;;;;3.10;0.73;;;8.30;99.90;;;;;;4996872;28;20117;-63
2021/01/30 01:47:45;;;;;;;3.17;0.75;;;8.30;99.90;;;;;;4979206;28;20030;-63
2021/01/30 01:50:19;;;;;;;4.70;0.82;;;8.30;99.90;;;;;;4996733;28;20058;-62
2021/01/30 01:52:45;;;;;;;2.47;0.60;;;8.30;99.90;;;;;;4996550;28;20030;-62
2021/01/30 01:55:18;;;;;;;3.60;1.20;;;8.30;99.90;;;;;;4996419;28;20026;-61
2021/01/30 01:57:48;;;;;;;2.78;1.23;;;8.30;99.90;;;;;;4996718;28;20046;-64
2021/01/30 02:00:15;;;;;;;2.05;0.90;;;8.30;99.90;;;;;;4978842;28;20022;-62
2021/01/30 02:02:40;;;;;;;2.33;0.65;;;8.20;99.90;;;;;;4996606;28;20025;-62
2021/01/30 02:05:08;;;;;;;4.93;1.87;;;8.20;99.90;;;;;;4996262;28;20113;-63
2021/01/30 02:07:43;;;;;;;4.13;1.23;;;8.20;99.90;;;;;;4996228;28;20293;-63
2021/01/30 02:10:14;;;;;;;4.20;1.58;;;8.10;99.90;;;;;;4996511;28;20038;-62
2021/01/30 02:12:41;;;;;;;5.50;1.80;;;8.10;99.90;;;;;;4996222;28;20076;-62
2021/01/30 02:15:08;;;;;;;2.53;1.20;;;8.10;99.90;;;;;;4996062;28;20022;-62
2021/01/30 02:17:33;;;;;;;3.53;1.13;;;8.10;99.90;;;;;;4996158;28;20372;-62
2021/01/30 02:20:20;;;;;;;5.50;1.20;;;8.10;99.90;;;;;;4996329;28;20034;-60
2021/01/30 02:22:57;;;;;;;3.58;1.05;;;8.10;99.90;;;;;;4996201;28;20098;-62
2021/01/30 02:25:41;;;;;;;;;;;8.00;99.90;;;;;;4996288;28;20027;-61
2021/01/30 02:28:48;;;;;;;6.13;1.70;;;8.00;99.90;;;;;;4995950;28;20000;-61
2021/01/30 02:32:00;;;;;;;6.70;1.50;;;7.90;99.90;;;;;;4995240;28;20054;-61
2021/01/30 02:35:05;;;;;;;4.10;1.20;;;7.80;99.90;;;;;;4978286;28;20087;-61
2021/01/30 02:38:00;;;;;;;5.32;1.15;;;7.70;99.90;;;;;;4994703;28;20046;-62
2021/01/30 02:40:28;;;;;;;3.75;1.95;;;7.70;99.90;;;;;;4988192;28;20038;-63
2021/01/30 02:43:00;;;;;;;5.32;1.55;;;7.70;99.90;;;;;;4978822;28;20368;-63
2021/01/30 02:45:28;;;;;;;7.35;0.90;;;7.70;99.90;;;;;;5035316;23;20050;-64
2021/01/30 02:48:12;;;;;;;2.38;1.00;;;7.70;99.90;;;;;;5015634;28;20084;-63
2021/01/30 02:50:45;;;;;;;4.97;1.08;;;7.70;99.90;;;;;;5014614;28;20089;-63
2021/01/30 02:53:18;;;;;;;8.13;1.73;;;7.70;99.90;;;;;;5015251;28;20450;-64
2021/01/30 02:55:44;;;;;;;5.50;1.98;;;7.70;99.90;;;;;;4997025;28;20037;-64
2021/01/30 02:58:13;;;;;;;6.45;1.65;;;7.70;99.90;;;;;;4995437;28;20026;-63
2021/01/30 03:00:40;;;;;;;7.10;2.22;;;7.70;99.90;;;;;;4995231;28;20033;-62
2021/01/30 03:03:05;;;;;;;5.50;1.60;;;7.70;99.90;;;;;;4977931;28;20387;-64
2021/01/30 03:05:31;;;;;;;5.57;1.47;;;7.70;99.90;;;;;;4995166;28;20023;-64
2021/01/30 03:08:28;;;;;;;5.82;1.48;;;7.60;99.90;;;;;;4994723;28;20053;-63
2021/01/30 03:11:06;;;;;;;3.63;1.67;;;7.60;99.90;;;;;;4995071;28;20056;-64
2021/01/30 03:13:57;;;;;;;6.55;1.45;;;7.60;99.90;;;;;;4996053;28;20467;-63
2021/01/30 03:16:35;;;;;;;6.68;2.08;;;7.60;99.90;;;;;;4997488;28;20095;-63
2021/01/30 03:19:07;;;;;;;6.03;2.00;;;7.50;99.90;;;;;;4997602;28;20023;-63
2021/01/30 03:21:34;;;;;;;6.07;2.00;;;7.50;99.90;;;;;;4997180;28;20511;-64
2021/01/30 03:24:02;;;;;;;6.03;1.63;;;7.50;99.90;;;;;;4996171;28;20088;-64
2021/01/30 03:26:28;;;;;;;4.75;1.60;;;7.50;99.90;;;;;;4995224;28;20506;-64
2021/01/30 03:28:55;;;;;;;7.68;2.03;;;7.50;99.90;;;;;;4993495;28;20041;-64
2021/01/30 03:31:21;;;;;;;5.43;1.83;;;7.50;99.90;;;;;;4994375;28;20041;-64
2021/01/30 03:33:47;;;;;;;9.27;2.83;;;7.50;99.90;;;;;;4994285;28;20045;-64
2021/01/30 03:36:12;;;;;;;7.30;2.20;;;7.40;99.90;;;;;;4994328;28;20097;-64
2021/01/30 03:38:38;;;;;;;5.47;1.97;;;7.40;99.90;;;;;;4994173;28;20402;-64
2021/01/30 03:41:04;;;;;;;9.07;2.07;;;7.50;99.90;;;;;;4994137;28;20514;-64
2021/01/30 03:43:30;;;;;;;9.25;3.55;;;7.40;99.90;;;;;;4993950;28;20494;-63
2021/01/30 03:45:56;;;;;;;5.60;2.23;;;7.40;99.90;;;;;;4994898;28;20034;-64
2021/01/30 03:48:22;;;;;;;6.60;2.30;;;7.40;99.90;;;;;;4993179;28;20023;-64
2021/01/30 03:50:47;;;;;;;7.03;2.77;;;7.40;99.90;;;;;;4993889;28;20292;-64
2021/01/30 03:53:13;;;;;;;8.93;3.00;;;7.50;99.90;;;;;;4993961;28;20352;-64
2021/01/30 03:55:38;;;;;;;10.43;5.37;;;7.50;99.90;;;;;;4993907;28;20068;-64
2021/01/30 03:58:06;;;;;;;8.10;2.63;;;7.50;99.90;;;;;;4994028;28;20390;-63
2021/01/30 04:00:32;;;;;;;8.40;3.13;;;7.50;99.90;;;;;;4993656;28;20026;-63
2021/01/30 04:02:57;;;;;;;7.03;2.70;;;7.60;99.90;;;;;;4993576;28;20030;-63
2021/01/30 04:05:25;;;;;;;9.90;3.03;;;7.60;99.90;;;;;;4993604;28;20038;-63
2021/01/30 04:07:53;;;;;;;7.75;2.83;;;7.60;99.90;;;;;;4993788;28;20387;-64
2021/01/30 04:10:29;;;;;;;7.22;2.75;;;7.60;99.90;;;;;;4993615;28;20026;-64
2021/01/30 04:12:56;;;;;;;9.43;3.05;;;7.60;99.90;;;;;;4976609;28;20026;-63
2021/01/30 04:15:26;;;;;;;5.75;2.35;;;7.60;99.90;;;;;;4994154;28;20053;-64
2021/01/30 04:17:51;;;;;;;6.68;2.60;;;7.60;99.90;;;;;;4993878;28;20031;-63
2021/01/30 04:20:17;;;;;;;7.80;2.03;;;7.60;99.90;;;;;;4993596;28;20053;-63
2021/01/30 04:22:43;;;;;;;7.47;2.22;;;7.60;99.90;;;;;;4993599;28;20080;-64
2021/01/30 04:25:10;;;;;;;6.43;2.60;;;7.60;99.90;;;;;;4993453;28;20034;-64
2021/01/30 04:27:35;;;;;;;6.70;1.45;;;7.60;99.90;;;;;;4993655;28;20722;-63
2021/01/30 04:30:03;;;;;;;6.97;1.60;;;7.70;99.90;;;;;;4993644;28;20034;-64
2021/01/30 04:32:28;;;;;;;5.30;1.00;;;7.70;99.90;;;;;;4993556;28;20030;-64
2021/01/30 04:34:54;;;;;;;2.70;1.10;;;7.70;99.90;;;;;;4993422;28;20049;-64
2021/01/30 04:37:20;;;;;;;5.90;0.90;;;7.70;99.90;;;;;;4993696;28;20022;-64
2021/01/30 04:39:45;;;;;;;5.40;1.20;;;7.70;99.90;;;;;;4993162;28;20030;-63
2021/01/30 04:42:33;;;;;;;6.23;1.30;;;7.70;99.90;;;;;;4993316;28;20030;-64
2021/01/30 04:45:03;;;;;;;4.95;0.90;;;7.70;99.90;;;;;;4993335;28;20062;-63
2021/01/30 04:47:40;;;;;;;11.93;1.75;;;7.70;99.90;;;;;;4994446;28;20026;-63
2021/01/30 04:50:29;;;;;;;;;;;7.70;99.90;;;;;;4994366;28;20164;-64
2021/01/30 04:53:02;;;;;;;;;;;7.80;99.90;;;;;;4994974;28;19965;-63
2021/01/30 04:55:57;;;;;;;6.53;1.10;;;7.70;99.90;;;;;;4994137;28;19953;-64
2021/01/30 04:58:50;;;;;;;5.75;1.10;;;7.80;99.90;;;;;;4993653;28;20106;-64
2021/01/30 05:01:45;;;;;;;8.70;1.30;;;7.80;99.90;;;;;;4979543;28;20026;-64
2021/01/30 05:04:12;;;;;;;6.97;1.30;;;7.80;99.90;;;;;;4998092;28;20356;-64
2021/01/30 05:06:51;;;;;;;7.32;1.10;;;7.80;99.90;;;;;;4997703;28;20108;-64
2021/01/30 05:09:28;;;;;;;9.88;2.22;;;7.80;99.90;;;;;;4997459;28;20101;-64
2021/01/30 05:12:12;;;;;;;5.45;1.52;;;7.80;99.90;;;;;;4980672;28;20049;-64
2021/01/30 05:14:45;;;;;;;8.48;1.40;;;7.80;99.90;;;;;;5001053;28;20041;-64
2021/01/30 05:17:19;;;;;;;20.95;6.60;;;7.80;99.90;;;;;;4999593;28;20037;-63
2021/01/30 05:19:53;;;;;;;26.73;12.30;;;7.80;99.90;;;;;;4998602;28;20034;-65
2021/01/30 05:22:21;;;;;;;10.90;3.60;;;7.80;99.90;;;;;;4979310;28;20092;-63
2021/01/30 05:24:47;;;;;;;9.75;4.38;;;7.80;99.90;;;;;;4996468;28;20046;-63
2021/01/30 05:27:24;;;;;;;17.60;4.00;;;7.80;99.90;;;;;;4996610;28;20037;-63
2021/01/30 05:30:15;;;;;;;12.05;2.97;;;7.80;99.90;;;;;;4996820;28;20030;-64
2021/01/30 05:32:46;;;;;;;13.25;2.85;;;7.80;99.90;;;;;;4996393;28;20498;-64
2021/01/30 05:35:18;;;;;;;15.90;6.13;;;7.80;99.90;;;;;;4996142;28;20038;-63
2021/01/30 05:38:07;;;;;;;8.70;2.08;;;7.80;99.90;;;;;;4996751;28;20023;-64
2021/01/30 05:40:40;;;;;;;10.05;2.28;;;7.80;99.90;;;;;;4996512;28;20112;-63
2021/01/30 05:43:27;;;;;;;7.90;1.63;;;7.80;99.90;;;;;;4996911;28;20033;-64
2021/01/30 05:45:57;;;;;;;11.38;2.00;;;7.90;99.90;;;;;;4996804;28;20031;-64
2021/01/30 05:48:37;;;;;;;10.68;1.52;;;7.80;99.90;;;;;;4996638;28;20033;-64
2021/01/30 05:51:16;;;;;;;11.10;2.45;;;7.90;99.90;;;;;;4996503;28;20487;-64
2021/01/30 05:53:43;;;;;;;11.30;1.95;;;7.90;99.90;;;;;;4996080;28;20395;-64
2021/01/30 05:56:09;;;;;;;7.53;1.65;;;7.90;99.90;;;;;;4978528;28;20455;-64
2021/01/30 05:58:39;;;;;;;5.67;1.70;;;7.80;99.90;;;;;;4995923;28;20050;-63
2021/01/30 06:01:16;;;;;;;6.68;1.90;;;7.80;99.90;;;;;;4996096;28;20383;-64
2021/01/30 06:04:05;;;;;;;9.10;2.47;;;7.80;99.90;;;;;;4996107;28;20092;-64
2021/01/30 06:07:02;;;;;;;9.18;2.50;;;7.80;99.90;;;;;;4995958;28;20472;-65
2021/01/30 06:09:27;;;;;;;12.63;1.83;;;7.90;99.90;;;;;;4977137;28;20049;-64
2021/01/30 06:11:54;;;;;;;7.77;2.00;;;7.80;99.90;;;;;;4994895;28;20026;-64
2021/01/30 06:14:28;;;;;;;;;;;7.90;99.90;;;;;;4996035;28;20063;-64
2021/01/30 06:16:59;;;;;;;9.75;2.53;;;7.80;99.90;;;;;;4995546;28;20286;-64
2021/01/30 06:19:27;;;;;;;10.32;1.70;;;7.80;99.90;;;;;;4996056;28;20066;-64
2021/01/30 06:22:18;;;;;;;7.28;1.50;;;7.90;99.90;;;;;;4995679;28;20144;-64
2021/01/30 06:24:44;;;;;;;11.75;1.85;;;7.80;99.90;;;;;;4994699;28;20049;-64
2021/01/30 06:27:33;;;;;;;12.52;2.15;;;7.80;99.90;;;;;;4995660;28;20027;-64
2021/01/30 06:30:08;;;;;;;7.05;1.77;;;7.90;99.90;;;;;;4993151;28;20046;-66
2021/01/30 06:32:42;;;;;;;12.95;2.03;;;7.80;99.90;;;;;;4981801;28;20030;-64
2021/01/30 06:35:13;;;;;;;9.90;1.90;;;7.80;99.90;;;;;;4997982;28;20109;-62
2021/01/30 06:37:53;;;;;;;9.43;1.73;;;7.80;99.90;;;;;;4995670;28;20028;-63
2021/01/30 06:40:46;;;;;;;11.77;2.72;;;7.80;99.90;;;;;;4995391;28;20154;-61
2021/01/30 06:43:36;;;;;;;9.10;2.78;;;7.80;99.90;;;;;;4995205;28;20018;-64
2021/01/30 06:46:08;;;;;;;9.35;1.90;;;7.80;99.90;;;;;;4983886;28;20046;-63
2021/01/30 06:48:46;;;;;;;10.13;2.40;;;7.80;99.90;;;;;;4977447;28;20022;-64
2021/01/30 06:51:36;;;;;;;12.60;2.28;;;7.80;99.90;;;;;;4995241;28;20467;-64
2021/01/30 06:54:24;;;;;;;13.30;2.28;;;7.80;99.90;;;;;;4995035;28;20026;-66
2021/01/30 06:57:03;;;;;;;14.10;2.75;;;7.80;99.90;;;;;;4995113;28;20431;-67
2021/01/30 06:59:32;;;;;;;9.75;2.03;;;7.80;99.90;;;;;;4977797;28;20387;-64
2021/01/30 07:02:00;;;;;;;16.08;2.15;;;7.90;99.90;;;;;;4994831;28;20023;-67
2021/01/30 07:05:04;;;;;;;12.70;2.05;;;7.80;99.90;;;;;;4977205;28;20030;-64
2021/01/30 07:07:49;;;;;;;13.32;2.50;;;7.90;99.90;;;;;;4984252;28;20045;-64
2021/01/30 07:10:29;;;;;;;12.80;2.92;;;7.80;99.90;;;;;;4995180;28;20026;-63
2021/01/30 07:13:03;;;;;;;13.80;2.53;;;7.80;99.90;;;;;;4977204;28;20050;-63
2021/01/30 07:15:51;;;;;;;13.50;2.10;;;7.80;99.90;;;;;;4995323;28;20395;-64
2021/01/30 07:18:31;;;;;;;11.98;2.05;;;7.90;99.90;;;;;;4976966;28;20041;-63
2021/01/30 07:21:00;;;;;;;11.10;2.00;;;7.90;99.90;;;;;;4994507;28;20035;-63
2021/01/30 07:23:53;;;;;;;12.57;2.40;;;7.90;99.90;;;;;;4976920;28;20057;-64
2021/01/30 07:26:27;;;;;;;10.23;2.33;;;7.90;99.90;;;;;;4976879;28;20030;-63
2021/01/30 07:29:00;;;;;;;9.30;2.03;;;7.90;99.90;;;;;;4976810;28;20022;-65
2021/01/30 07:31:30;;;;;;;12.25;2.85;;;8.00;99.90;;;;;;4994551;28;20041;-64
2021/01/30 07:34:34;;;;;;;17.17;2.40;;;8.00;99.90;;;;;;4994148;28;20034;-64
2021/01/30 07:37:08;;;;;;;13.25;2.33;;;8.00;99.90;;;;;;4994483;28;20030;-64
2021/01/30 07:39:51;;;;;;;10.95;2.13;;;8.10;99.90;;;;;;4994354;28;20018;-63
2021/01/30 07:42:31;;;;;;;8.85;2.10;;;8.10;99.90;;;;;;4976641;28;20121;-64
2021/01/30 07:45:13;;;;;;;11.35;2.22;;;8.10;99.90;;;;;;4994161;28;20046;-64
2021/01/30 07:48:03;;;;;;;14.00;2.47;;;8.10;99.90;;;;;;4994353;28;20027;-64
2021/01/30 07:50:32;;;;;;;16.27;2.85;;;8.10;99.90;;;;;;4976539;28;20399;-62
2021/01/30 07:53:25;;;;;;;11.57;2.00;;;8.20;99.90;;;;;;4993936;28;20109;-64
2021/01/30 07:56:17;;;;;;;15.43;1.92;;;8.20;99.90;;;;;;4992870;28;20483;-64
2021/01/30 07:59:26;;;;;;;17.00;2.60;;;8.30;99.90;;;;;;4976344;28;20059;-64
2021/01/30 08:02:14;;;;;;;16.02;2.95;;;8.40;99.90;;;;;;4994219;28;20015;-64
2021/01/30 08:05:10;;;;;;;10.13;2.22;;;8.40;99.90;;;;;;4993525;28;20041;-64
2021/01/30 08:07:56;;;;;;;14.43;2.50;;;8.40;99.90;;;;;;4993867;28;20033;-64
2021/01/30 08:10:40;;;;;;;15.77;2.67;;;8.40;99.90;;;;;;4994412;28;20027;-63
2021/01/30 08:13:30;;;;;;;9.60;2.88;;;8.40;99.90;;;;;;4995731;28;20030;-64
2021/01/30 08:16:29;;;;;;;13.73;3.25;;;8.50;99.90;;;;;;4993870;28;20074;-64
2021/01/30 08:19:01;;;;;;;14.52;2.55;;;8.50;99.90;;;;;;4994317;28;20497;-65
2021/01/30 08:21:39;;;;;;;13.88;2.53;;;8.50;99.90;;;;;;4993907;28;20022;-63
2021/01/30 08:24:20;;;;;;;12.75;2.47;;;8.50;99.90;;;;;;4994084;28;20045;-63
2021/01/30 08:27:08;;;;;;;21.05;3.50;;;8.60;99.90;;;;;;4993625;28;20127;-64
2021/01/30 08:29:35;;;;;;;11.30;2.30;;;8.60;99.90;;;;;;4993716;28;20057;-64
2021/01/30 08:32:23;;;;;;;15.15;2.78;;;8.70;99.90;;;;;;4993496;28;20026;-64
2021/01/30 08:34:49;;;;;;;12.82;2.92;;;8.70;99.90;;;;;;4995815;28;20061;-64
2021/01/30 08:37:15;;;;;;;;;;;8.70;99.90;;;;;;4998630;28;20026;-63
2021/01/30 08:40:01;;;;;;;15.50;3.53;;;8.70;99.90;;;;;;4997900;28;19913;-64
2021/01/30 08:42:36;;;;;;;20.42;3.25;;;8.70;99.90;;;;;;4997765;28;20097;-63
2021/01/30 08:45:02;;;;;;;14.48;3.38;;;8.70;99.90;;;;;;4997901;28;20495;-64
2021/01/30 08:47:32;;;;;;;18.77;4.17;;;8.80;99.90;;;;;;4997487;28;20113;-65
2021/01/30 08:50:11;;;;;;;20.75;3.22;;;8.70;99.90;;;;;;4997597;28;20109;-65
2021/01/30 08:52:55;;;;;;;20.38;3.70;;;8.70;99.90;;;;;;4997546;28;20101;-65
2021/01/30 08:55:46;;;;;;;13.90;3.13;;;8.60;99.90;;;;;;4997312;28;20023;-65
2021/01/30 08:58:36;;;;;;;17.20;3.17;;;8.60;99.90;;;;;;4997143;28;20033;-65
2021/01/30 09:01:08;;;;;;;15.18;2.90;;;8.60;99.90;;;;;;4997060;28;20510;-65
2021/01/30 09:03:44;;;;;;;16.27;2.97;;;8.60;99.90;;;;;;4996717;28;20062;-64
2021/01/30 09:06:30;;;;;;;15.52;2.90;;;8.60;99.90;;;;;;4979430;28;20065;-65
2021/01/30 09:09:14;;;;;;;13.65;2.85;;;8.70;99.90;;;;;;4996844;28;20448;-65
2021/01/30 09:11:43;;;;;;;16.90;2.85;;;8.70;99.90;;;;;;4997547;28;20014;-67
2021/01/30 09:14:33;;;;;;;19.20;2.78;;;8.70;99.90;;;;;;4997107;28;20026;-64
2021/01/30 09:17:05;;;;;;;14.18;2.65;;;8.70;99.90;;;;;;4996765;28;20014;-65
2021/01/30 09:19:40;;;;;;;21.17;3.95;;;8.80;99.90;;;;;;4996934;28;20097;-65
2021/01/30 09:22:24;;;;;;;17.05;3.45;;;8.80;99.90;;;;;;4979215;28;20100;-66
2021/01/30 09:25:14;;;;;;;12.05;2.65;;;8.80;99.90;;;;;;4996902;28;20059;-66
2021/01/30 09:28:05;;;;;;;15.85;3.30;;;8.90;99.90;;;;;;4997227;28;20436;-67
2021/01/30 09:30:39;;;;;;;16.05;3.42;;;8.80;99.90;;;;;;4996929;28;20073;-67
2021/01/30 09:33:38;;;;;;;18.98;3.08;;;8.80;99.90;;;;;;4979160;28;20031;-65
2021/01/30 09:36:07;;;;;;;8.57;2.78;;;8.80;99.90;;;;;;4996701;28;20080;-65
2021/01/30 09:38:36;;;;;;;14.65;2.85;;;8.90;99.90;;;;;;4996112;28;20025;-65
2021/01/30 09:41:14;;;;;;;11.25;2.60;;;8.80;99.90;;;;;;4995061;28;20026;-66
2021/01/30 09:43:40;;;;;;;11.77;2.50;;;8.70;99.90;;;;;;4994411;28;20057;-65
2021/01/30 09:46:11;;;;;;;15.32;2.63;;;8.80;99.90;;;;;;4995140;28;20030;-66
2021/01/30 09:48:38;;;;;;;11.02;2.88;;;8.80;99.90;;;;;;4994330;28;20651;-66
2021/01/30 09:51:06;;;;;;;20.92;3.33;;;8.80;99.90;;;;;;4996147;28;20034;-67
2021/01/30 09:53:49;;;;;;;15.02;2.80;;;8.70;99.90;;;;;;4996391;28;20045;-67
2021/01/30 09:56:17;;;;;;;16.75;3.13;;;8.80;99.90;;;;;;4978619;28;20030;-64
2021/01/30 09:58:46;;;;;;;19.20;4.18;;;8.80;99.90;;;;;;4996406;28;20026;-66
2021/01/30 10:01:44;;;;;;;14.70;2.65;;;8.80;99.90;;;;;;4996249;28;20101;-65
2021/01/30 10:04:20;;;;;;;20.55;4.15;;;8.80;99.90;;;;;;4996118;28;20037;-66
2021/01/30 10:06:47;;;;;;;14.65;2.60;;;8.70;99.90;;;;;;4996473;28;20031;-66
2021/01/30 10:09:22;;;;;;;20.83;4.00;;;8.80;99.90;;;;;;4996348;28;20071;-66
2021/01/30 10:11:58;;;;;;;25.30;6.45;;;8.70;99.90;;;;;;4996338;28;20030;-66
2021/01/30 10:14:32;;;;;;;12.65;2.92;;;8.70;99.90;;;;;;4995645;28;20058;-66
2021/01/30 10:17:20;;;;;;;21.80;3.50;;;8.70;99.90;;;;;;4995921;28;20030;-66
2021/01/30 10:19:45;;;;;;;16.42;2.58;;;8.70;99.90;;;;;;4995486;28;20446;-66
2021/01/30 10:22:31;;;;;;;15.43;2.75;;;8.70;99.90;;;;;;4995794;28;20030;-66
2021/01/30 10:25:02;;;;;;;17.40;2.45;;;8.70;99.90;;;;;;4995778;28;20045;-68
2021/01/30 10:27:29;;;;;;;16.13;5.28;;;8.70;99.90;;;;;;4995785;28;20399;-65
2021/01/30 10:29:57;;;;;;;14.63;2.78;;;8.70;99.90;;;;;;4995830;28;20022;-67
2021/01/30 10:32:41;;;;;;;11.15;3.17;;;8.70;99.90;;;;;;4996051;28;20029;-65
2021/01/30 10:35:23;;;;;;;19.30;3.58;;;8.60;99.90;;;;;;4996012;28;20026;-65
2021/01/30 10:37:59;;;;;;;18.33;3.28;;;8.60;99.90;;;;;;4977585;28;20045;-65
2021/01/30 10:40:33;;;;;;;9.85;2.50;;;8.50;99.90;;;;;;4995681;28;20014;-66
2021/01/30 10:43:02;;;;;;;17.42;2.33;;;8.50;99.90;;;;;;4995396;28;20379;-66
2021/01/30 10:45:29;;;;;;;15.07;3.38;;;8.40;99.90;;;;;;4995123;28;20089;-66
2021/01/30 10:48:09;;;;;;;17.08;4.40;;;8.50;99.90;;;;;;4995321;28;20029;-66
2021/01/30 10:50:38;;;;;;;54.83;30.13;;;8.50;99.90;;;;;;4995106;28;20029;-65
2021/01/30 10:53:23;;;;;;;25.58;4.38;;;8.50;99.90;;;;;;4977498;28;20033;-66
2021/01/30 10:55:50;;;;;;;16.35;3.05;;;8.50;99.90;;;;;;4978374;28;20030;-65
2021/01/30 10:58:24;;;;;;;13.70;3.47;;;8.50;99.90;;;;;;4994871;28;20026;-67
2021/01/30 11:01:11;;;;;;;10.98;2.33;;;8.50;99.90;;;;;;4995005;28;20018;-66
2021/01/30 11:03:44;;;;;;;12.98;2.60;;;8.60;99.90;;;;;;4995300;28;20027;-66
2021/01/30 11:06:43;;;;;;;16.33;3.17;;;8.50;99.90;;;;;;4977235;28;20391;-66
2021/01/30 11:09:21;;;;;;;18.80;2.95;;;8.50;99.90;;;;;;4994803;28;20364;-66
2021/01/30 11:11:49;;;;;;;17.25;2.58;;;8.50;99.90;;;;;;4994595;28;20026;-66
2021/01/30 11:14:25;;;;;;;15.48;3.65;;;8.50;99.90;;;;;;4994495;28;20499;-66
2021/01/30 11:16:52;;;;;;;18.27;3.37;;;8.60;99.90;;;;;;4976942;28;20026;-66
2021/01/30 11:19:23;;;;;;;18.10;3.35;;;8.60;99.90;;;;;;4994487;28;20290;-66
2021/01/30 11:22:01;;;;;;;19.10;5.38;;;8.50;99.90;;;;;;4994589;28;20061;-66
2021/01/30 11:24:47;;;;;;;11.90;3.30;;;8.40;99.90;;;;;;4994267;28;20057;-66
2021/01/30 11:27:33;;;;;;;17.60;4.50;;;8.50;99.90;;;;;;4994146;28;20026;-66
2021/01/30 11:30:25;;;;;;;13.98;3.15;;;8.50;99.90;;;;;;4994251;28;20030;-65
2021/01/30 11:32:52;;;;;;;15.52;3.00;;;8.50;99.90;;;;;;4994354;28;20057;-66
2021/01/30 11:35:27;;;;;;;18.08;4.13;;;8.50;99.90;;;;;;4993948;28;20037;-66
2021/01/30 11:37:59;;;;;;;17.67;2.50;;;8.60;99.90;;;;;;4976696;28;20026;-67
2021/01/30 11:40:24;;;;;;;10.75;2.60;;;8.60;99.90;;;;;;4993919;28;20046;-66
2021/01/30 11:42:50;;;;;;;16.40;3.10;;;8.60;99.90;;;;;;4994230;28;20415;-66
2021/01/30 11:45:16;;;;;;;17.13;3.07;;;8.70;99.90;;;;;;4992774;28;20034;-65
2021/01/30 11:47:41;;;;;;;12.07;2.25;;;8.70;99.90;;;;;;4976560;28;20026;-65
2021/01/30 11:50:09;;;;;;;9.30;2.37;;;8.80;99.90;;;;;;4994347;28;20030;-66
2021/01/30 11:52:34;;;;;;;15.07;2.53;;;8.80;99.90;;;;;;4993940;28;20130;-66
2021/01/30 11:55:03;;;;;;;13.70;2.37;;;8.80;99.90;;;;;;4993520;28;20053;-66
2021/01/30 11:57:29;;;;;;;12.75;2.63;;;8.80;99.90;;;;;;4994079;28;20109;-66
2021/01/30 11:59:55;;;;;;;8.80;2.05;;;8.80;99.90;;;;;;4994727;28;20033;-65
2021/01/30 12:02:40;;;;;;;12.13;2.37;;;8.90;99.90;;;;;;4994708;28;20026;-66
2021/01/30 12:05:11;;;;;;;9.70;2.97;;;8.90;99.90;;;;;;4993763;28;20119;-64
2021/01/30 12:07:37;;;;;;;10.82;2.40;;;9.00;99.90;;;;;;4993850;28;20026;-65
2021/01/30 12:10:05;;;;;;;14.37;2.40;;;9.10;99.90;;;;;;4993153;28;20033;-65
2021/01/30 12:12:31;;;;;;;22.75;2.80;;;9.00;99.90;;;;;;4976645;28;20273;-65
2021/01/30 12:14:57;;;;;;;7.27;1.97;;;9.10;99.90;;;;;;4976202;28;20026;-65
2021/01/30 12:17:33;;;;;;;7.30;1.97;;;9.10;99.90;;;;;;4993811;28;20328;-65
2021/01/30 12:19:59;;;;;;;14.95;2.90;;;9.20;99.90;;;;;;4976238;28;20514;-66
2021/01/30 12:22:24;;;;;;;9.00;2.50;;;9.20;99.90;;;;;;4993849;28;20030;-66
2021/01/30 12:24:50;;;;;;;16.13;2.73;;;9.20;99.90;;;;;;4993599;28;20030;-67
2021/01/30 12:27:17;;;;;;;10.20;2.10;;;9.30;99.90;;;;;;4976108;28;20026;-67
2021/01/30 12:29:44;;;;;;;;;;;9.10;99.90;;;;;;4993797;28;20081;-65
2021/01/30 12:32:13;;;;;;;11.05;2.25;;;9.00;99.90;;;;;;4993926;28;20345;-66
2021/01/30 12:34:39;;;;;;;14.77;2.75;;;9.00;99.90;;;;;;4994129;28;20027;-66
2021/01/30 12:37:06;;;;;;;10.20;2.35;;;8.90;99.90;;;;;;4976577;28;20049;-66
2021/01/30 12:39:32;;;;;;;12.70;2.78;;;8.90;99.90;;;;;;4993748;28;20447;-64
2021/01/30 12:41:57;;;;;;;11.48;2.80;;;8.90;99.90;;;;;;4993527;28;20022;-65
2021/01/30 12:44:24;;;;;;;13.73;2.63;;;8.80;99.90;;;;;;4976093;28;20034;-64
2021/01/30 12:46:51;;;;;;;9.30;2.50;;;8.90;99.90;;;;;;4993744;28;20420;-63
2021/01/30 12:49:17;;;;;;;12.00;2.55;;;8.90;99.90;;;;;;4993515;28;20034;-65
2021/01/30 12:51:43;;;;;;;13.90;2.50;;;8.90;99.90;;;;;;4994060;28;20365;-65
2021/01/30 12:54:09;;;;;;;16.83;2.80;;;8.80;99.90;;;;;;4993374;28;20033;-65
2021/01/30 12:56:36;;;;;;;11.45;2.38;;;8.80;99.90;;;;;;4976654;28;20534;-64
2021/01/30 12:59:02;;;;;;;;;;;8.80;99.90;;;;;;4994970;28;20058;-65
2021/01/30 13:01:30;;;;;;;11.80;2.45;;;8.70;99.90;;;;;;4993511;28;19906;-65
2021/01/30 13:03:56;;;;;;;13.02;2.85;;;8.60;99.90;;;;;;4993445;28;20097;-65
2021/01/30 13:06:21;;;;;;;14.00;2.90;;;8.60;99.90;;;;;;4993246;28;20112;-65
2021/01/30 13:08:48;;;;;;;10.60;2.30;;;8.60;99.90;;;;;;4992599;28;20034;-65
2021/01/30 13:11:15;;;;;;;14.82;2.65;;;8.50;99.90;;;;;;4993045;28;20502;-65
2021/01/30 13:13:40;;;;;;;;;;;8.50;99.90;;;;;;4975791;28;20121;-65
2021/01/30 13:16:07;;;;;;;10.27;1.92;;;8.50;99.90;;;;;;4993129;28;20442;-65
2021/01/30 13:18:33;;;;;;;9.23;2.17;;;8.50;99.90;;;;;;4992927;28;20113;-66
2021/01/30 13:21:00;;;;;;;11.70;3.30;;;8.50;99.90;;;;;;4978091;28;20027;-67
2021/01/30 13:23:26;;;;;;;13.10;2.50;;;8.60;99.90;;;;;;4979233;28;20022;-65
2021/01/30 13:25:51;;;;;;;9.57;2.07;;;8.60;99.90;;;;;;4997093;28;20049;-65
2021/01/30 13:28:17;;;;;;;17.52;2.40;;;8.70;99.90;;;;;;4997747;28;20045;-66